Time;durP1;ratioP1;P1;durP2;ratioP2;P2;SDS_P1;SDS_P2;PMS_P1;PMS_P2;Temp;Humidity;BMP_temperature;BMP_pressure;BME280_temperature;BME280_humidity;BME280_pressure;Samples;Min_cycle;Max_cycle;Signal;HPM_P1;HPM_P2
2022/09/28 00:00:08;;;;;;;1.42;0.45;;;9.60;83.50;;;8.03;100.00;94585.28;4966059;28;20379;-70
2022/09/28 00:02:34;;;;;;;1.52;0.50;;;9.60;83.50;;;8.04;100.00;94579.03;5027155;28;20036;-70
2022/09/28 00:05:01;;;;;;;0.30;0.30;;;9.60;83.70;;;8.06;100.00;94579.63;4997553;28;20114;-71
2022/09/28 00:07:28;;;;;;;1.75;0.40;;;9.60;83.70;;;8.04;100.00;94577.22;5002099;28;20035;-70
2022/09/28 00:09:56;;;;;;;3.60;0.60;;;9.60;83.90;;;8.05;100.00;94578.03;4996012;28;20037;-69
2022/09/28 00:12:22;;;;;;;0.75;0.40;;;9.60;84.30;;;8.02;100.00;94567.97;5021593;28;20497;-71
2022/09/28 00:14:48;;;;;;;0.30;0.30;;;9.50;84.40;;;8.02;100.00;94567.97;4968342;28;20042;-70
2022/09/28 00:17:15;;;;;;;3.60;0.73;;;9.50;84.70;;;8.01;100.00;94566.38;4952184;28;20042;-70
2022/09/28 00:19:43;;;;;;;1.27;0.40;;;9.50;85.10;;;8.01;100.00;94567.16;4973134;28;20067;-71
2022/09/28 00:22:09;;;;;;;1.05;0.40;;;9.40;85.20;;;8.01;100.00;94563.75;5003757;28;20072;-70
2022/09/28 00:24:35;;;;;;;2.10;0.60;;;9.50;85.30;;;8.01;100.00;94550.66;5021744;28;20044;-71
2022/09/28 00:27:02;;;;;;;1.25;0.40;;;9.50;85.60;;;7.99;100.00;94543.00;5049346;28;20120;-71
2022/09/28 00:29:30;;;;;;;1.52;0.60;;;9.50;85.70;;;8.05;100.00;94536.13;4976893;28;20046;-70
2022/09/28 00:32:08;;;;;;;1.00;0.40;;;9.60;85.60;;;8.08;100.00;94526.03;4976431;28;20072;-70
2022/09/28 00:34:40;;;;;;;2.78;0.70;;;9.80;85.40;;;8.12;100.00;94524.59;4964750;28;20072;-71
2022/09/28 00:37:07;;;;;;;2.30;0.80;;;9.70;85.10;;;8.15;100.00;94520.75;4985410;28;20036;-70
2022/09/28 00:39:34;;;;;;;1.23;0.68;;;9.70;85.10;;;8.16;100.00;94512.69;5025661;28;20431;-71
2022/09/28 00:42:01;;;;;;;2.58;0.90;;;9.80;85.00;;;8.19;100.00;94499.16;5013125;28;20035;-71
2022/09/28 00:44:37;;;;;;;3.03;0.90;;;9.80;84.90;;;8.22;100.00;94498.75;4935369;28;20098;-68
2022/09/28 00:47:14;;;;;;;2.50;0.70;;;9.80;84.90;;;8.25;100.00;94502.75;4920878;28;20030;-69
2022/09/28 00:49:48;;;;;;;3.08;0.70;;;9.80;85.00;;;8.24;100.00;94495.91;4997414;28;20060;-69
2022/09/28 00:52:27;;;;;;;1.85;0.60;;;9.70;85.30;;;8.26;100.00;94494.66;4964554;28;20402;-69
2022/09/28 00:54:53;;;;;;;1.35;0.68;;;9.90;85.20;;;8.27;100.00;94488.41;4998022;28;20033;-68
2022/09/28 00:57:19;;;;;;;1.58;0.55;;;9.90;85.30;;;8.29;100.00;94481.16;4964434;28;20385;-69
2022/09/28 00:59:45;;;;;;;0.60;0.43;;;9.90;85.20;;;8.32;100.00;94474.66;4931788;28;20069;-71
2022/09/28 01:02:11;;;;;;;3.38;0.80;;;9.90;85.20;;;8.36;100.00;94464.59;4994350;28;20031;-69
2022/09/28 01:04:37;;;;;;;0.73;0.50;;;9.90;84.90;;;8.35;100.00;94469.03;5043135;28;20393;-69
2022/09/28 01:07:03;;;;;;;1.95;0.85;;;9.90;85.10;;;8.37;100.00;94467.00;5029022;28;20033;-71
2022/09/28 01:09:29;;;;;;;1.75;0.60;;;9.90;85.10;;;8.36;100.00;94454.91;5016200;28;20089;-69
2022/09/28 01:11:54;;;;;;;0.75;0.32;;;9.90;85.30;;;8.37;100.00;94456.50;4970567;28;20441;-68
2022/09/28 01:14:22;;;;;;;2.05;0.70;;;9.80;85.30;;;8.34;100.00;94456.16;4948333;28;20517;-69
2022/09/28 01:17:19;;;;;;;0.70;0.30;;;9.80;85.10;;;8.32;100.00;94461.56;4967384;28;20513;-69
2022/09/28 01:20:12;;;;;;;1.35;0.40;;;9.70;85.10;;;8.26;100.00;94444.09;4977921;28;20038;-68
2022/09/28 01:23:14;;;;;;;1.65;0.45;;;9.60;85.50;;;8.23;100.00;94440.09;4957429;28;20043;-69
2022/09/28 01:26:13;;;;;;;1.27;0.40;;;9.60;85.40;;;8.23;100.00;94434.06;4967042;28;20040;-70
2022/09/28 01:28:39;;;;;;;1.10;0.40;;;9.70;85.30;;;8.18;100.00;94428.66;4996347;28;20529;-70
2022/09/28 01:31:12;;;;;;;0.30;0.20;;;9.70;85.20;;;8.20;100.00;94426.63;4964795;28;20039;-69
2022/09/28 01:33:43;;;;;;;0.85;0.30;;;9.60;84.90;;;8.19;100.00;94417.19;4951835;28;20601;-69
2022/09/28 01:36:20;;;;;;;1.85;0.40;;;9.60;85.20;;;8.18;100.00;94419.00;4934646;28;20043;-69
2022/09/28 01:38:48;;;;;;;3.85;0.40;;;9.60;84.80;;;8.17;100.00;94411.38;4963632;28;20035;-70
2022/09/28 01:41:16;;;;;;;0.90;0.20;;;9.60;84.60;;;8.17;100.00;94403.50;4994821;28;20083;-71
2022/09/28 01:43:46;;;;;;;1.23;0.47;;;9.60;84.70;;;8.18;100.00;94405.91;4936084;28;20502;-70
2022/09/28 01:46:18;;;;;;;1.00;0.32;;;9.60;84.50;;;8.19;100.00;94397.03;4987870;28;20070;-69
2022/09/28 01:49:00;;;;;;;1.15;0.40;;;9.60;84.40;;;8.19;100.00;94388.38;4966357;28;20104;-70
2022/09/28 01:51:46;;;;;;;1.23;0.30;;;9.60;84.20;;;8.21;100.00;94384.53;4957989;28;21745;-69
2022/09/28 01:54:14;;;;;;;0.98;0.35;;;9.60;84.10;;;8.20;100.00;94376.88;4952215;28;20422;-70
2022/09/28 01:56:51;;;;;;;0.88;0.20;;;9.60;83.90;;;8.20;100.00;94376.88;4964908;28;20035;-70
2022/09/28 01:59:26;;;;;;;2.83;0.50;;;9.60;84.20;;;8.21;100.00;94374.03;5011483;28;20051;-69
2022/09/28 02:02:03;;;;;;;0.88;0.30;;;9.60;84.10;;;8.20;100.00;94361.97;4955955;28;20027;-69
2022/09/28 02:05:15;;;;;;;1.85;0.30;;;9.60;83.70;;;8.20;100.00;94355.94;4964186;28;20064;-70
2022/09/28 02:08:03;;;;;;;1.30;0.30;;;9.60;83.90;;;8.17;100.00;94341.47;5009583;28;20028;-70
2022/09/28 02:10:47;;;;;;;0.30;0.10;;;9.60;83.80;;;8.18;100.00;94339.63;5028439;28;20514;-69
2022/09/28 02:13:38;;;;;;;1.42;0.55;;;9.60;83.60;;;8.16;100.00;94331.19;4942885;28;20043;-68
2022/09/28 02:16:41;;;;;;;1.98;0.25;;;9.60;83.60;;;8.16;100.00;94318.09;4957769;28;20035;-68
2022/09/28 02:19:13;;;;;;;0.93;0.40;;;9.60;83.70;;;8.13;100.00;94315.91;4958590;28;20054;-68
2022/09/28 02:22:03;;;;;;;1.95;0.40;;;9.50;83.60;;;8.12;100.00;94314.28;4968314;28;20530;-69
2022/09/28 02:24:40;;;;;;;1.30;0.30;;;9.60;83.70;;;8.08;100.00;94305.28;5031918;28;20045;-69
2022/09/28 02:27:17;;;;;;;1.10;0.50;;;9.50;83.70;;;8.06;100.00;94296.84;5022942;28;20401;-69
2022/09/28 02:29:42;;;;;;;2.42;1.00;;;9.50;83.40;;;8.05;100.00;94297.88;4956711;28;20034;-69
2022/09/28 02:32:09;;;;;;;0.47;0.30;;;9.50;83.40;;;8.04;100.00;94304.13;4968493;28;20050;-69
2022/09/28 02:34:35;;;;;;;1.42;0.40;;;9.50;83.30;;;8.02;100.00;94296.47;4955060;28;20051;-68
2022/09/28 02:37:01;;;;;;;0.47;0.40;;;9.50;83.20;;;8.02;100.00;94290.44;4924058;28;20043;-70
2022/09/28 02:39:27;;;;;;;0.95;0.30;;;9.40;83.20;;;8.00;100.00;94298.53;5044578;28;20051;-69
2022/09/28 02:42:33;;;;;;;2.28;0.40;;;9.40;83.30;;;7.96;100.00;94287.69;4966366;28;20065;-69
2022/09/28 02:45:41;;;;;;;2.20;0.32;;;9.40;83.00;;;7.94;100.00;94279.25;4952630;28;20108;-68
2022/09/28 02:48:21;;;;;;;0.90;0.20;;;9.40;83.10;;;7.93;100.00;94275.03;4967182;28;20458;-67
2022/09/28 02:51:19;;;;;;;0.57;0.30;;;9.40;82.90;;;7.90;100.00;94272.81;5031146;28;20089;-70
2022/09/28 02:54:15;;;;;;;1.65;0.38;;;9.40;82.80;;;7.89;100.00;94276.47;4991259;28;20067;-65
2022/09/28 02:57:26;;;;;;;1.38;0.47;;;9.40;82.80;;;7.88;100.00;94268.81;4962476;28;20536;-68
2022/09/28 03:00:11;;;;;;;1.90;0.32;;;9.40;82.80;;;7.86;100.00;94271.66;4944497;28;20042;-67
2022/09/28 03:02:53;;;;;;;0.88;0.25;;;9.30;82.80;;;7.84;100.00;94260.59;4946776;28;20048;-69
2022/09/28 03:05:54;;;;;;;0.93;0.30;;;9.40;82.80;;;7.85;100.00;94254.34;4995964;28;20047;-70
2022/09/28 03:08:30;;;;;;;5.93;1.65;;;9.40;82.70;;;7.84;100.00;94258.00;4993282;28;20542;-70
2022/09/28 03:11:18;;;;;;;3.10;1.25;;;9.40;82.80;;;7.84;100.00;94247.53;4985425;28;20031;-71
2022/09/28 03:13:44;;;;;;;1.85;0.50;;;9.40;82.70;;;7.85;100.00;94249.13;5006250;28;20148;-72
2022/09/28 03:16:12;;;;;;;4.97;2.20;;;9.40;82.60;;;7.86;100.00;94245.50;4953648;28;20041;-71
2022/09/28 03:18:38;;;;;;;2.33;0.77;;;9.40;82.60;;;7.86;100.00;94245.50;4964355;28;20482;-70
2022/09/28 03:21:04;;;;;;;1.75;0.70;;;9.40;82.50;;;7.86;100.00;94242.88;4948781;28;20037;-71
2022/09/28 03:23:30;;;;;;;1.13;0.40;;;9.50;82.40;;;7.89;100.00;94233.78;4966950;28;20423;-70
2022/09/28 03:25:56;;;;;;;4.57;2.20;;;9.50;82.40;;;7.90;100.00;94240.63;4987235;28;20047;-70
2022/09/28 03:28:22;;;;;;;0.90;0.50;;;9.60;82.40;;;7.90;100.00;94238.00;4984689;28;20126;-70
2022/09/28 03:30:48;;;;;;;1.40;0.40;;;9.50;82.30;;;7.90;100.00;94241.41;4990956;28;20033;-70
2022/09/28 03:33:14;;;;;;;0.88;0.43;;;9.50;82.20;;;7.87;100.00;94239.22;5052907;28;20056;-69
2022/09/28 03:35:40;;;;;;;1.15;0.40;;;9.40;82.30;;;7.87;100.00;94236.63;4992552;28;20075;-70
2022/09/28 03:38:05;;;;;;;3.13;0.60;;;9.40;82.30;;;7.87;100.00;94230.59;4987969;28;20047;-69
2022/09/28 03:40:31;;;;;;;0.77;0.30;;;9.40;82.20;;;7.85;100.00;94222.16;4932273;28;20149;-70
2022/09/28 03:42:59;;;;;;;2.40;0.60;;;9.40;82.20;;;7.85;100.00;94216.91;4947261;28;20100;-69
2022/09/28 03:45:24;;;;;;;3.30;0.70;;;9.30;82.10;;;7.86;100.00;94213.28;4963755;28;20031;-70
2022/09/28 03:47:51;;;;;;;1.25;0.50;;;9.40;82.10;;;7.86;100.00;94214.09;4964170;28;20564;-70
2022/09/28 03:50:16;;;;;;;1.05;0.40;;;9.40;82.10;;;7.87;100.00;94205.22;4960128;28;20391;-74
2022/09/28 03:52:42;;;;;;;3.00;0.60;;;9.40;82.00;;;7.87;100.00;94210.44;4996051;28;20036;-67
2022/09/28 03:55:08;;;;;;;2.72;0.68;;;9.40;82.10;;;7.87;100.00;94209.66;4962776;28;20038;-67
2022/09/28 03:57:34;;;;;;;2.03;0.60;;;9.40;82.20;;;7.88;100.00;94208.63;4983205;28;20047;-68
2022/09/28 04:00:00;;;;;;;2.10;0.68;;;9.40;82.20;;;7.87;100.00;94207.81;4987299;28;20031;-69
2022/09/28 04:02:25;;;;;;;1.85;0.30;;;9.40;82.60;;;7.87;100.00;94199.97;4966456;28;20039;-69
2022/09/28 04:04:51;;;;;;;1.17;0.40;;;9.40;82.60;;;7.86;100.00;94198.38;4965540;28;20039;-67
2022/09/28 04:07:17;;;;;;;1.98;0.43;;;9.40;82.80;;;7.89;100.00;94197.13;5016297;28;20559;-72
2022/09/28 04:09:43;;;;;;;1.20;0.38;;;9.40;82.30;;;7.89;100.00;94203.16;4999537;28;20040;-68
2022/09/28 04:12:08;;;;;;;1.13;0.45;;;9.40;81.80;;;7.90;100.00;94198.72;5005919;28;20042;-69
2022/09/28 04:14:34;;;;;;;0.63;0.40;;;9.40;81.80;;;7.90;100.00;94199.53;4984863;28;20552;-68
2022/09/28 04:17:00;;;;;;;1.67;0.60;;;9.40;81.70;;;7.92;100.00;94197.53;4962072;28;20039;-70
2022/09/28 04:19:28;;;;;;;1.83;0.50;;;9.40;81.80;;;7.91;100.00;94188.03;4968940;28;20726;-68
2022/09/28 04:21:54;;;;;;;1.85;0.63;;;9.40;81.40;;;7.97;100.00;94187.19;5066477;28;20045;-67
2022/09/28 04:24:20;;;;;;;1.35;0.57;;;9.50;81.20;;;7.99;100.00;94187.75;5021664;28;20042;-67
2022/09/28 04:26:45;;;;;;;0.90;0.40;;;9.50;81.50;;;8.02;100.00;94188.34;4967605;28;20532;-67
2022/09/28 04:29:17;;;;;;;2.17;0.60;;;9.50;81.20;;;8.03;100.00;94182.09;5013822;28;20053;-67
2022/09/28 04:31:45;;;;;;;3.60;0.60;;;9.60;81.20;;;8.06;100.00;94177.22;5055940;28;20025;-66
2022/09/28 04:34:16;;;;;;;0.57;0.40;;;9.60;81.30;;;8.09;100.00;94174.16;5054241;28;20051;-67
2022/09/28 04:36:43;;;;;;;2.25;0.40;;;9.60;81.30;;;8.13;100.00;94174.50;5031643;28;20109;-66
2022/09/28 04:39:13;;;;;;;2.05;0.50;;;9.70;81.50;;;8.15;100.00;94181.13;5010632;28;20031;-66
2022/09/28 04:41:40;;;;;;;;;;;9.70;81.60;;;8.14;100.00;94179.50;5072032;28;20041;-68
2022/09/28 04:44:06;;;;;;;2.33;0.60;;;9.70;81.70;;;8.13;100.00;94169.25;5070679;28;20458;-67
2022/09/28 04:46:32;;;;;;;2.78;0.70;;;9.70;81.60;;;8.16;100.00;94168.84;5041238;28;20115;-67
2022/09/28 04:48:57;;;;;;;0.90;0.40;;;9.70;81.40;;;8.17;100.00;94171.25;5025145;28;20060;-67
2022/09/28 04:51:23;;;;;;;1.48;0.50;;;9.70;81.40;;;8.19;100.00;94171.81;5019424;28;20042;-67
2022/09/28 04:53:49;;;;;;;2.78;0.52;;;9.80;81.40;;;8.20;100.00;94178.66;4994008;28;20092;-67
2022/09/28 04:56:15;;;;;;;1.40;0.40;;;9.80;81.40;;;8.23;100.00;94180.03;5057377;28;20523;-68
2022/09/28 04:58:41;;;;;;;1.85;0.70;;;9.80;81.10;;;8.23;100.00;94174.78;4995403;28;20030;-69
2022/09/28 05:01:10;;;;;;;1.30;0.40;;;9.80;81.40;;;8.22;100.00;94175.81;4990060;28;20035;-68
2022/09/28 05:03:36;;;;;;;1.05;0.28;;;9.70;81.50;;;8.18;100.00;94166.81;4937762;28;20051;-68
2022/09/28 05:06:02;;;;;;;0.95;0.50;;;9.60;81.50;;;8.18;100.00;94179.91;4936863;28;20104;-69
2022/09/28 05:08:28;;;;;;;1.33;0.40;;;9.60;81.80;;;8.17;100.00;94178.31;5011347;28;20063;-68
2022/09/28 05:11:05;;;;;;;2.60;0.40;;;9.60;81.50;;;8.15;100.00;94165.44;5026082;28;20028;-68
2022/09/28 05:13:31;;;;;;;1.35;0.28;;;9.60;81.80;;;8.15;100.00;94172.47;5022343;28;20031;-67
2022/09/28 05:15:57;;;;;;;1.58;0.52;;;9.60;82.20;;;8.14;100.00;94176.09;4969842;28;20497;-68
2022/09/28 05:18:23;;;;;;;1.95;0.50;;;9.50;82.00;;;8.13;100.00;94174.50;5009774;28;20051;-67
2022/09/28 05:20:49;;;;;;;2.28;0.30;;;9.60;82.10;;;8.15;100.00;94172.47;5022410;28;20032;-67
2022/09/28 05:23:15;;;;;;;3.38;0.52;;;9.60;82.10;;;8.14;100.00;94166.41;5071936;28;20029;-67
2022/09/28 05:25:41;;;;;;;1.38;0.30;;;9.60;82.60;;;8.13;100.00;94158.78;5037454;28;20108;-67
2022/09/28 05:28:07;;;;;;;1.38;0.40;;;9.60;82.30;;;8.14;100.00;94155.16;5035054;28;20040;-67
2022/09/28 05:30:34;;;;;;;2.40;0.50;;;9.60;82.50;;;8.14;100.00;94148.09;5028469;28;20059;-67
2022/09/28 05:32:59;;;;;;;1.73;0.47;;;9.60;82.80;;;8.16;100.00;94150.50;5033325;28;20034;-67
2022/09/28 05:35:25;;;;;;;1.77;0.50;;;9.70;83.10;;;8.15;100.00;94165.44;5021916;28;20046;-68
2022/09/28 05:37:51;;;;;;;1.67;0.38;;;9.60;82.90;;;8.16;100.00;94150.50;5053172;28;20036;-67
2022/09/28 05:40:17;;;;;;;2.13;0.40;;;9.60;83.20;;;8.15;100.00;94138.44;5070538;28;20522;-68
2022/09/28 05:42:43;;;;;;;2.38;0.35;;;9.60;83.20;;;8.16;100.00;94132.19;5048156;28;20117;-68
2022/09/28 05:45:09;;;;;;;1.23;0.57;;;9.60;83.40;;;8.16;100.00;94111.25;4994168;28;20043;-67
2022/09/28 05:47:39;;;;;;;2.17;0.50;;;9.70;83.10;;;8.19;100.00;94108.16;5070123;28;20063;-67
2022/09/28 05:50:07;;;;;;;0.93;0.40;;;9.70;82.80;;;8.21;100.00;94116.59;4989995;28;20042;-67
2022/09/28 05:52:32;;;;;;;2.22;0.85;;;9.70;82.70;;;8.24;100.00;94116.16;5038329;28;20045;-67
2022/09/28 05:54:58;;;;;;;2.47;1.70;;;9.80;82.90;;;8.27;100.00;94116.50;4973656;28;20498;-68
2022/09/28 05:57:24;;;;;;;2.63;1.40;;;9.80;82.60;;;8.29;100.00;94113.66;5027971;28;20033;-67
2022/09/28 05:59:52;;;;;;;1.48;0.90;;;9.90;82.70;;;8.31;100.00;94109.00;5069212;28;20032;-67
2022/09/28 06:02:17;;;;;;;2.97;1.00;;;9.90;82.70;;;8.30;100.00;94100.34;5039592;28;20088;-68
2022/09/28 06:04:43;;;;;;;4.53;3.33;;;9.90;82.60;;;8.36;100.00;94117.00;5027954;28;20040;-67
2022/09/28 06:07:09;;;;;;;1.02;0.50;;;10.00;83.20;;;8.40;100.00;94120.78;5053193;28;20033;-67
2022/09/28 06:09:35;;;;;;;1.83;1.00;;;10.00;82.60;;;8.45;100.00;94120.13;5069609;28;20098;-67
2022/09/28 06:12:00;;;;;;;1.48;0.60;;;10.10;82.40;;;8.46;100.00;94108.63;5050964;28;20571;-67
2022/09/28 06:14:26;;;;;;;4.90;0.65;;;10.10;81.70;;;8.48;100.00;94107.38;5005575;28;20587;-67
2022/09/28 06:16:52;;;;;;;2.40;0.70;;;10.10;81.90;;;8.49;100.00;94108.97;5069682;28;20082;-67
2022/09/28 06:19:17;;;;;;;1.27;0.63;;;10.10;81.60;;;8.52;100.00;94108.50;5070749;28;20082;-67
2022/09/28 06:21:43;;;;;;;1.42;0.65;;;10.10;81.20;;;8.54;100.00;94111.69;5046148;28;20033;-67
2022/09/28 06:24:09;;;;;;;1.20;0.52;;;10.10;81.60;;;8.57;100.00;94126.16;5028739;28;20040;-67
2022/09/28 06:26:35;;;;;;;0.75;0.43;;;10.10;81.80;;;8.57;100.00;94121.72;5019917;28;20048;-67
2022/09/28 06:29:02;;;;;;;1.52;0.80;;;10.10;81.60;;;8.61;100.00;94109.00;5069038;28;20416;-68
2022/09/28 06:31:28;;;;;;;5.95;3.70;;;10.10;81.70;;;8.61;100.00;94105.59;5053112;28;20036;-67
2022/09/28 06:33:54;;;;;;;3.90;1.98;;;10.20;81.40;;;8.64;100.00;94105.13;4993572;28;20043;-67
2022/09/28 06:36:21;;;;;;;4.72;3.05;;;10.10;81.30;;;8.62;100.00;94096.69;5057539;28;20033;-67
2022/09/28 06:38:46;;;;;;;5.05;2.88;;;10.10;82.10;;;8.66;100.00;94097.84;5069088;28;20522;-67
2022/09/28 06:41:12;;;;;;;5.60;2.78;;;10.20;81.80;;;8.66;100.00;94097.84;5070385;28;20032;-67
2022/09/28 06:43:38;;;;;;;3.85;2.20;;;10.30;81.80;;;8.67;100.00;94104.66;5009896;28;20031;-67
2022/09/28 06:46:04;;;;;;;3.88;2.08;;;10.20;81.80;;;8.70;100.00;94104.22;5030463;28;20111;-67
2022/09/28 06:48:32;;;;;;;1.75;1.10;;;10.30;82.10;;;8.70;100.00;94101.59;5047895;28;20086;-67
2022/09/28 06:50:58;;;;;;;2.28;1.38;;;10.20;82.00;;;8.69;100.00;94108.66;5068776;28;20432;-68
2022/09/28 06:53:23;;;;;;;2.53;0.90;;;10.20;82.20;;;8.69;100.00;94102.63;5021324;28;20028;-66
2022/09/28 06:55:49;;;;;;;2.72;1.48;;;10.20;82.00;;;8.70;100.00;94105.00;5008447;28;20457;-67
2022/09/28 06:58:18;;;;;;;1.55;0.98;;;10.20;81.90;;;8.67;100.00;94107.28;5038568;28;20046;-67
2022/09/28 07:00:44;;;;;;;1.67;0.63;;;10.20;81.90;;;8.68;100.00;94116.75;5052620;28;20066;-67
2022/09/28 07:03:12;;;;;;;1.85;0.80;;;10.20;82.10;;;8.68;100.00;94101.03;5048840;28;20037;-67
2022/09/28 07:05:41;;;;;;;1.92;0.60;;;10.20;82.00;;;8.71;100.00;94117.09;5013439;28;20020;-67
2022/09/28 07:08:07;;;;;;;0.77;0.38;;;10.30;81.70;;;8.71;100.00;94116.28;5051436;28;20508;-67
2022/09/28 07:10:33;;;;;;;1.67;0.40;;;10.20;81.50;;;8.71;100.00;94118.91;5068953;28;20055;-67
2022/09/28 07:13:01;;;;;;;1.73;0.50;;;10.30;81.70;;;8.71;100.00;94126.78;5049965;28;20392;-67
2022/09/28 07:15:28;;;;;;;0.88;0.40;;;10.20;81.70;;;8.71;100.00;94118.91;5010259;28;20041;-67
2022/09/28 07:18:01;;;;;;;1.55;0.70;;;10.20;82.00;;;8.70;100.00;94130.44;5051418;28;20082;-67
2022/09/28 07:20:26;;;;;;;1.33;0.50;;;10.20;82.10;;;8.71;100.00;94138.06;5068924;28;20571;-68
2022/09/28 07:22:56;;;;;;;1.42;0.38;;;10.20;82.40;;;8.72;100.00;94133.63;5053017;28;20032;-67
2022/09/28 07:25:22;;;;;;;3.47;0.52;;;10.20;82.40;;;8.71;100.00;94132.03;5026648;28;20048;-67
2022/09/28 07:27:48;;;;;;;1.05;0.50;;;10.10;82.50;;;8.69;100.00;94128.84;5068020;28;20064;-68
2022/09/28 07:30:14;;;;;;;2.40;0.35;;;10.20;82.70;;;8.71;100.00;94126.78;5051795;28;20052;-68
2022/09/28 07:32:40;;;;;;;0.68;0.32;;;10.20;83.00;;;8.72;100.00;94139.66;4999322;28;20047;-67
2022/09/28 07:35:08;;;;;;;0.43;0.30;;;10.20;82.90;;;8.72;100.00;94138.88;5021113;28;20038;-67
2022/09/28 07:37:36;;;;;;;1.35;0.63;;;10.20;82.90;;;8.74;100.00;94136.81;5008950;28;20034;-67
2022/09/28 07:42:48;;;;;;;2.38;0.40;;;10.20;83.20;;;8.75;100.00;94148.88;4993074;28;20517;-67
2022/09/28 07:45:14;;;;;;;1.38;0.60;;;10.30;83.10;;;8.77;100.00;94152.09;5009787;28;20024;-67
2022/09/28 07:47:39;;;;;;;1.25;0.70;;;10.30;83.30;;;8.79;100.00;94160.50;5051648;28;20036;-66
2022/09/28 07:50:06;;;;;;;0.88;0.77;;;10.30;83.40;;;8.82;100.00;94146.97;4988235;28;20105;-67
2022/09/28 07:52:34;;;;;;;1.48;0.60;;;10.40;83.60;;;8.85;100.00;94159.63;5035331;28;20033;-66
2022/09/28 07:55:00;;;;;;;1.83;0.68;;;10.40;83.20;;;8.87;100.00;94153.13;5010025;28;20036;-66
2022/09/28 07:57:26;;;;;;;2.03;0.65;;;10.50;83.30;;;8.92;100.00;94152.47;5069126;28;20047;-66
2022/09/28 07:59:54;;;;;;;1.83;0.60;;;10.60;83.40;;;8.93;100.00;94156.69;5072681;28;20028;-67
2022/09/28 08:02:21;;;;;;;1.63;0.90;;;10.50;83.30;;;8.98;100.00;94158.63;5024996;28;20054;-67
2022/09/28 08:04:47;;;;;;;0.60;0.40;;;10.60;83.20;;;9.01;100.00;94153.72;5001164;28;20633;-68
2022/09/28 08:07:14;;;;;;;1.50;0.60;;;10.60;83.30;;;9.06;100.00;94153.06;4998394;28;20046;-67
2022/09/28 08:09:41;;;;;;;2.70;1.40;;;10.60;83.50;;;9.10;100.00;94164.69;5071889;28;20035;-66
2022/09/28 08:12:07;;;;;;;2.35;0.77;;;10.70;83.60;;;9.10;100.00;94168.09;5071519;28;20037;-67
2022/09/28 08:14:33;;;;;;;0.93;0.35;;;10.70;83.50;;;9.13;100.00;94170.28;5049391;28;20094;-67
2022/09/28 08:17:02;;;;;;;1.52;0.38;;;10.70;84.00;;;9.16;100.00;94172.44;5008772;28;20035;-67
2022/09/28 08:22:14;;;;;;;0.50;0.40;;;10.70;84.20;;;9.14;100.00;94173.69;5071563;28;20066;-67
2022/09/28 08:24:39;;;;;;;1.02;0.30;;;10.60;83.70;;;9.13;100.00;94182.59;5063087;28;20040;-66
2022/09/28 08:27:06;;;;;;;2.40;0.38;;;10.60;84.60;;;9.14;100.00;94184.97;5005083;28;20096;-67
2022/09/28 08:29:31;;;;;;;1.10;0.40;;;10.70;84.40;;;9.19;100.00;94185.09;4995344;28;20038;-67
2022/09/28 08:32:00;;;;;;;1.30;0.60;;;10.70;84.20;;;9.23;100.00;94190.69;4970576;28;20062;-68
2022/09/28 08:34:26;;;;;;;1.23;0.40;;;10.80;84.30;;;9.26;100.00;94181.56;4969651;28;20632;-67
2022/09/28 08:36:55;;;;;;;2.38;0.50;;;10.90;84.40;;;9.31;100.00;94179.06;4968485;28;20051;-67
2022/09/28 08:39:21;;;;;;;1.38;0.50;;;11.00;83.80;;;9.36;100.00;94184.41;5019624;28;20075;-67
2022/09/28 08:41:53;;;;;;;1.58;1.15;;;11.10;84.10;;;9.40;100.00;94191.59;5054895;28;20032;-68
2022/09/28 08:44:22;;;;;;;1.33;0.80;;;11.10;83.70;;;9.45;100.00;94206.66;5055127;28;20029;-67
2022/09/28 08:46:57;;;;;;;2.58;0.45;;;11.20;84.10;;;9.49;100.00;94219.09;5010277;28;20100;-68
2022/09/28 08:49:44;;;;;;;0.32;0.25;;;11.20;84.20;;;9.51;100.00;94232.81;4950096;28;20053;-67
2022/09/28 08:52:13;;;;;;;0.32;0.20;;;11.10;83.60;;;9.50;100.00;94241.72;4952555;28;20498;-67
2022/09/28 08:54:48;;;;;;;0.32;0.20;;;11.10;82.90;;;9.52;100.00;94254.59;4937925;28;20043;-66
2022/09/28 08:57:26;;;;;;;1.17;0.28;;;11.10;82.70;;;9.54;100.00;94257.81;4956367;28;20134;-67
2022/09/28 08:59:57;;;;;;;1.00;0.20;;;11.20;82.30;;;9.51;100.00;94268.75;5028587;28;20141;-66
2022/09/28 09:02:32;;;;;;;0.63;0.30;;;11.10;80.80;;;9.50;100.00;94283.69;5055306;28;20123;-67
2022/09/28 09:05:09;;;;;;;0.60;0.28;;;11.10;81.10;;;9.48;100.00;94290.19;5055506;28;20032;-67
2022/09/28 09:08:01;;;;;;;1.30;0.30;;;11.10;81.40;;;9.46;100.00;94286.97;4999379;28;20410;-67
2022/09/28 09:10:49;;;;;;;0.75;0.40;;;11.10;81.60;;;9.50;100.00;94293.38;5008085;28;20038;-67
2022/09/28 09:13:48;;;;;;;1.05;0.50;;;11.20;81.80;;;9.53;100.00;94292.94;5070968;28;20080;-67
2022/09/28 09:16:56;;;;;;;1.08;0.47;;;11.30;81.80;;;9.55;100.00;94296.13;5054787;28;20075;-67
2022/09/28 09:19:50;;;;;;;0.88;0.40;;;11.30;81.30;;;9.58;100.00;94305.38;5011346;28;20054;-68
2022/09/28 09:22:20;;;;;;;3.13;0.60;;;11.30;80.70;;;9.54;100.00;94294.53;5051031;28;20113;-66
2022/09/28 09:25:07;;;;;;;1.17;0.52;;;11.20;80.20;;;9.59;100.00;94292.03;5054784;28;20025;-67
2022/09/28 09:27:45;;;;;;;1.17;0.50;;;11.40;80.20;;;9.66;100.00;94292.72;5022295;28;20048;-67
2022/09/28 09:30:14;;;;;;;0.88;0.43;;;11.50;79.90;;;9.66;100.00;94282.22;5027439;28;20508;-67
2022/09/28 09:33:22;;;;;;;5.95;3.42;;;11.50;80.10;;;9.73;100.00;94275.03;5000051;28;20060;-67
2022/09/28 09:36:16;;;;;;;3.25;1.40;;;11.60;79.70;;;9.74;100.00;94274.00;5070696;28;20044;-67
2022/09/28 09:39:13;;;;;;;1.15;0.65;;;11.60;79.70;;;9.82;100.00;94270.25;5014791;28;20032;-67
2022/09/28 09:42:06;;;;;;;3.42;0.50;;;11.80;79.50;;;9.87;100.00;94274.81;5070352;28;20028;-68
2022/09/28 09:45:02;;;;;;;3.08;0.65;;;11.90;79.40;;;9.92;100.00;94291.47;5053957;28;20040;-67
2022/09/28 09:47:41;;;;;;;2.65;1.05;;;11.90;79.80;;;10.04;100.00;94299.34;5046933;28;20032;-67
2022/09/28 09:50:28;;;;;;;3.63;1.10;;;12.10;79.90;;;10.10;100.00;94301.84;4998271;28;20119;-68
2022/09/28 09:53:00;;;;;;;1.70;1.20;;;12.10;78.70;;;10.15;100.00;94298.53;4999545;28;20033;-68
2022/09/28 09:55:33;;;;;;;1.25;0.90;;;12.00;78.30;;;10.19;100.00;94304.94;4974217;28;20556;-68
2022/09/28 09:58:22;;;;;;;4.25;1.80;;;12.10;79.00;;;10.29;100.00;94296.50;4967058;28;20085;-68
2022/09/28 10:00:50;;;;;;;2.97;1.95;;;12.30;79.00;;;10.36;100.00;94297.97;4981989;28;21820;-67
2022/09/28 10:03:27;;;;;;;2.22;0.65;;;12.40;78.40;;;10.42;100.00;94296.25;5013563;28;20097;-68
2022/09/28 10:06:03;;;;;;;1.27;0.40;;;12.50;77.20;;;10.45;100.00;94306.31;5011808;28;20424;-66
2022/09/28 10:08:29;;;;;;;2.28;1.20;;;12.50;77.10;;;10.49;100.00;94317.94;5053898;28;20097;-67
2022/09/28 10:11:15;;;;;;;1.85;0.90;;;12.40;77.50;;;10.54;100.00;94310.16;5034030;28;20038;-67
2022/09/28 10:13:43;;;;;;;1.55;0.93;;;12.40;77.50;;;10.52;100.00;94306.16;5002509;28;20031;-67
2022/09/28 10:16:09;;;;;;;2.05;1.30;;;12.20;77.60;;;10.49;100.00;94322.41;4951956;28;20042;-67
2022/09/28 10:18:34;;;;;;;1.95;0.80;;;12.20;78.10;;;10.45;100.00;94316.03;4968161;28;20077;-68
2022/09/28 10:21:00;;;;;;;2.10;0.90;;;12.10;78.50;;;10.38;100.00;94316.91;4965995;28;20027;-68
2022/09/28 10:23:32;;;;;;;1.75;0.88;;;11.90;78.60;;;10.39;100.00;94318.50;5010015;28;20037;-67
2022/09/28 10:26:22;;;;;;;4.13;1.50;;;12.10;78.90;;;10.41;100.00;94313.84;5026856;28;20531;-67
2022/09/28 10:29:14;;;;;;;4.47;2.10;;;12.20;78.30;;;10.46;100.00;94317.63;5052680;28;20041;-67
2022/09/28 10:31:48;;;;;;;3.58;1.83;;;12.30;77.50;;;10.50;100.00;94316.91;5045106;28;20047;-68
2022/09/28 10:34:16;;;;;;;3.40;1.17;;;12.40;77.10;;;10.57;100.00;94319.41;5007242;28;20418;-67
2022/09/28 10:36:49;;;;;;;1.60;0.73;;;12.50;76.50;;;10.63;100.00;94318.47;5031877;28;20085;-68
2022/09/28 10:39:36;;;;;;;1.95;0.68;;;12.60;76.00;;;10.70;100.00;94327.84;5068906;28;20036;-68
2022/09/28 10:42:07;;;;;;;0.95;0.50;;;12.60;75.70;;;10.70;100.00;94332.31;5027032;28;20449;-68
2022/09/28 10:44:37;;;;;;;1.48;0.70;;;12.60;75.90;;;10.65;100.00;94326.94;4993093;28;20041;-67
2022/09/28 10:47:06;;;;;;;1.47;0.60;;;12.50;76.50;;;10.70;100.00;94334.94;5030367;28;20484;-67